sensor_id;sensor_type;location;lat;lon;timestamp;P1;durP1;ratioP1;P2;durP2;ratioP2
22768;SDS011;13001;51.968;5.918;2022-07-06T00:01:36;531.80;;;494.73;;
22768;SDS011;13001;51.968;5.918;2022-07-06T00:04:04;516.58;;;480.98;;
22768;SDS011;13001;51.968;5.918;2022-07-06T00:06:31;521.25;;;484.85;;
22768;SDS011;13001;51.968;5.918;2022-07-06T00:08:59;539.15;;;500.72;;
22768;SDS011;13001;51.968;5.918;2022-07-06T00:11:26;524.35;;;486.90;;
22768;SDS011;13001;51.968;5.918;2022-07-06T00:13:54;541.97;;;503.00;;
22768;SDS011;13001;51.968;5.918;2022-07-06T00:16:22;547.97;;;507.97;;
22768;SDS011;13001;51.968;5.918;2022-07-06T00:18:50;552.88;;;512.62;;
22768;SDS011;13001;51.968;5.918;2022-07-06T00:21:23;544.30;;;505.57;;
22768;SDS011;13001;51.968;5.918;2022-07-06T00:23:50;586.30;;;543.05;;
22768;SDS011;13001;51.968;5.918;2022-07-06T00:26:18;567.33;;;525.77;;
22768;SDS011;13001;51.968;5.918;2022-07-06T00:28:46;591.15;;;548.20;;
22768;SDS011;13001;51.968;5.918;2022-07-06T00:31:13;568.02;;;526.50;;
22768;SDS011;13001;51.968;5.918;2022-07-06T00:33:40;659.45;;;609.73;;
22768;SDS011;13001;51.968;5.918;2022-07-06T00:36:13;668.00;;;617.17;;
22768;SDS011;13001;51.968;5.918;2022-07-06T00:38:41;650.00;;;601.50;;
22768;SDS011;13001;51.968;5.918;2022-07-06T00:41:08;657.42;;;607.88;;
22768;SDS011;13001;51.968;5.918;2022-07-06T00:43:48;655.03;;;605.80;;
22768;SDS011;13001;51.968;5.918;2022-07-06T00:46:15;678.30;;;627.02;;
22768;SDS011;13001;51.968;5.918;2022-07-06T00:48:43;681.58;;;629.58;;
22768;SDS011;13001;51.968;5.918;2022-07-06T00:51:10;678.27;;;625.33;;
22768;SDS011;13001;51.968;5.918;2022-07-06T00:53:38;704.50;;;649.93;;
22768;SDS011;13001;51.968;5.918;2022-07-06T00:56:05;697.50;;;643.52;;
22768;SDS011;13001;51.968;5.918;2022-07-06T00:58:33;708.62;;;652.35;;
22768;SDS011;13001;51.968;5.918;2022-07-06T01:01:00;713.52;;;656.47;;
22768;SDS011;13001;51.968;5.918;2022-07-06T01:03:27;714.50;;;657.52;;
22768;SDS011;13001;51.968;5.918;2022-07-06T01:05:55;718.25;;;660.87;;
22768;SDS011;13001;51.968;5.918;2022-07-06T01:08:23;732.70;;;673.50;;
22768;SDS011;13001;51.968;5.918;2022-07-06T01:10:51;722.37;;;664.37;;
22768;SDS011;13001;51.968;5.918;2022-07-06T01:13:18;747.52;;;687.08;;
22768;SDS011;13001;51.968;5.918;2022-07-06T01:15:45;755.65;;;694.13;;
22768;SDS011;13001;51.968;5.918;2022-07-06T01:18:13;727.85;;;668.17;;
22768;SDS011;13001;51.968;5.918;2022-07-06T01:20:41;749.10;;;687.98;;
22768;SDS011;13001;51.968;5.918;2022-07-06T01:23:08;743.25;;;682.85;;
22768;SDS011;13001;51.968;5.918;2022-07-06T01:25:35;735.13;;;675.07;;
22768;SDS011;13001;51.968;5.918;2022-07-06T01:28:02;731.73;;;672.52;;
22768;SDS011;13001;51.968;5.918;2022-07-06T01:30:30;736.60;;;676.52;;
22768;SDS011;13001;51.968;5.918;2022-07-06T01:32:57;739.55;;;678.83;;
22768;SDS011;13001;51.968;5.918;2022-07-06T01:35:24;740.10;;;679.33;;
22768;SDS011;13001;51.968;5.918;2022-07-06T01:37:53;735.35;;;675.27;;
22768;SDS011;13001;51.968;5.918;2022-07-06T01:40:20;738.70;;;678.12;;
22768;SDS011;13001;51.968;5.918;2022-07-06T01:42:47;736.38;;;675.75;;
22768;SDS011;13001;51.968;5.918;2022-07-06T01:45:15;738.98;;;678.23;;
22768;SDS011;13001;51.968;5.918;2022-07-06T01:47:42;752.35;;;690.50;;
22768;SDS011;13001;51.968;5.918;2022-07-06T01:50:09;765.60;;;703.00;;
22768;SDS011;13001;51.968;5.918;2022-07-06T01:52:37;776.05;;;712.72;;
22768;SDS011;13001;51.968;5.918;2022-07-06T01:55:04;756.10;;;693.75;;
22768;SDS011;13001;51.968;5.918;2022-07-06T01:57:31;760.80;;;698.30;;
22768;SDS011;13001;51.968;5.918;2022-07-06T01:59:59;758.05;;;696.05;;
22768;SDS011;13001;51.968;5.918;2022-07-06T02:02:26;777.10;;;713.45;;
22768;SDS011;13001;51.968;5.918;2022-07-06T02:04:53;733.17;;;673.65;;
22768;SDS011;13001;51.968;5.918;2022-07-06T02:07:20;744.77;;;684.00;;
22768;SDS011;13001;51.968;5.918;2022-07-06T02:09:48;748.23;;;687.65;;
22768;SDS011;13001;51.968;5.918;2022-07-06T02:12:15;744.60;;;684.13;;
22768;SDS011;13001;51.968;5.918;2022-07-06T02:14:42;740.73;;;680.80;;
22768;SDS011;13001;51.968;5.918;2022-07-06T02:17:09;753.13;;;691.87;;
22768;SDS011;13001;51.968;5.918;2022-07-06T02:19:37;760.33;;;699.08;;
22768;SDS011;13001;51.968;5.918;2022-07-06T02:22:04;741.08;;;681.00;;
22768;SDS011;13001;51.968;5.918;2022-07-06T02:24:31;763.95;;;703.48;;
22768;SDS011;13001;51.968;5.918;2022-07-06T02:26:58;747.33;;;687.80;;
22768;SDS011;13001;51.968;5.918;2022-07-06T02:29:26;747.48;;;688.00;;
22768;SDS011;13001;51.968;5.918;2022-07-06T02:31:54;751.27;;;691.05;;
22768;SDS011;13001;51.968;5.918;2022-07-06T02:34:21;738.75;;;678.83;;
22768;SDS011;13001;51.968;5.918;2022-07-06T02:36:50;727.60;;;668.87;;
22768;SDS011;13001;51.968;5.918;2022-07-06T02:39:17;749.90;;;690.17;;
22768;SDS011;13001;51.968;5.918;2022-07-06T02:41:44;748.23;;;688.55;;
22768;SDS011;13001;51.968;5.918;2022-07-06T02:44:12;752.83;;;694.47;;
22768;SDS011;13001;51.968;5.918;2022-07-06T02:46:39;758.15;;;698.00;;
22768;SDS011;13001;51.968;5.918;2022-07-06T02:49:06;745.05;;;685.90;;
22768;SDS011;13001;51.968;5.918;2022-07-06T02:51:33;755.90;;;696.90;;
22768;SDS011;13001;51.968;5.918;2022-07-06T02:54:01;747.57;;;689.10;;
22768;SDS011;13001;51.968;5.918;2022-07-06T02:56:28;734.08;;;677.05;;
22768;SDS011;13001;51.968;5.918;2022-07-06T02:58:55;752.95;;;694.37;;
22768;SDS011;13001;51.968;5.918;2022-07-06T03:01:22;754.70;;;696.35;;
22768;SDS011;13001;51.968;5.918;2022-07-06T03:03:50;749.93;;;692.33;;
22768;SDS011;13001;51.968;5.918;2022-07-06T03:06:17;749.62;;;691.55;;
22768;SDS011;13001;51.968;5.918;2022-07-06T03:08:44;760.15;;;702.08;;
22768;SDS011;13001;51.968;5.918;2022-07-06T03:11:11;758.05;;;699.52;;
22768;SDS011;13001;51.968;5.918;2022-07-06T03:13:39;749.60;;;692.53;;
22768;SDS011;13001;51.968;5.918;2022-07-06T03:16:06;740.73;;;683.98;;
22768;SDS011;13001;51.968;5.918;2022-07-06T03:18:33;751.20;;;693.95;;
22768;SDS011;13001;51.968;5.918;2022-07-06T03:21:00;740.28;;;683.45;;
22768;SDS011;13001;51.968;5.918;2022-07-06T03:23:29;754.85;;;697.48;;
22768;SDS011;13001;51.968;5.918;2022-07-06T03:25:57;742.05;;;685.67;;
22768;SDS011;13001;51.968;5.918;2022-07-06T03:28:25;745.45;;;688.85;;
22768;SDS011;13001;51.968;5.918;2022-07-06T03:30:52;746.37;;;689.92;;
22768;SDS011;13001;51.968;5.918;2022-07-06T03:33:19;743.70;;;687.55;;
22768;SDS011;13001;51.968;5.918;2022-07-06T03:35:46;748.08;;;691.40;;
22768;SDS011;13001;51.968;5.918;2022-07-06T03:38:14;746.05;;;689.37;;
22768;SDS011;13001;51.968;5.918;2022-07-06T03:40:41;736.60;;;681.02;;
22768;SDS011;13001;51.968;5.918;2022-07-06T03:43:08;739.63;;;682.92;;
22768;SDS011;13001;51.968;5.918;2022-07-06T03:45:35;740.57;;;683.93;;
22768;SDS011;13001;51.968;5.918;2022-07-06T03:48:03;729.48;;;673.60;;
22768;SDS011;13001;51.968;5.918;2022-07-06T03:50:30;745.75;;;688.27;;
22768;SDS011;13001;51.968;5.918;2022-07-06T03:52:57;742.00;;;685.45;;
22768;SDS011;13001;51.968;5.918;2022-07-06T03:55:24;740.90;;;685.00;;
22768;SDS011;13001;51.968;5.918;2022-07-06T03:57:52;734.50;;;679.30;;
22768;SDS011;13001;51.968;5.918;2022-07-06T04:00:19;716.80;;;664.05;;
22768;SDS011;13001;51.968;5.918;2022-07-06T04:02:46;673.73;;;624.52;;
22768;SDS011;13001;51.968;5.918;2022-07-06T04:05:14;623.90;;;580.43;;
22768;SDS011;13001;51.968;5.918;2022-07-06T04:07:41;605.27;;;563.72;;
22768;SDS011;13001;51.968;5.918;2022-07-06T04:10:09;609.57;;;568.43;;
22768;SDS011;13001;51.968;5.918;2022-07-06T04:12:40;602.73;;;562.20;;
22768;SDS011;13001;51.968;5.918;2022-07-06T04:15:08;615.30;;;573.78;;
22768;SDS011;13001;51.968;5.918;2022-07-06T04:17:35;657.67;;;613.12;;
22768;SDS011;13001;51.968;5.918;2022-07-06T04:20:22;687.87;;;639.83;;
22768;SDS011;13001;51.968;5.918;2022-07-06T04:22:51;651.63;;;604.83;;
22768;SDS011;13001;51.968;5.918;2022-07-06T04:25:19;645.07;;;597.87;;
22768;SDS011;13001;51.968;5.918;2022-07-06T04:27:46;630.98;;;584.55;;
22768;SDS011;13001;51.968;5.918;2022-07-06T04:30:13;626.37;;;581.30;;
22768;SDS011;13001;51.968;5.918;2022-07-06T04:32:41;620.02;;;575.53;;
22768;SDS011;13001;51.968;5.918;2022-07-06T04:35:08;623.50;;;577.47;;
22768;SDS011;13001;51.968;5.918;2022-07-06T04:37:35;630.58;;;584.90;;
22768;SDS011;13001;51.968;5.918;2022-07-06T04:40:04;679.93;;;631.80;;
22768;SDS011;13001;51.968;5.918;2022-07-06T04:42:31;708.17;;;660.42;;
22768;SDS011;13001;51.968;5.918;2022-07-06T04:44:58;754.10;;;702.62;;
22768;SDS011;13001;51.968;5.918;2022-07-06T04:47:26;744.10;;;692.23;;
22768;SDS011;13001;51.968;5.918;2022-07-06T04:49:53;628.17;;;582.43;;
22768;SDS011;13001;51.968;5.918;2022-07-06T04:52:20;804.37;;;743.80;;
22768;SDS011;13001;51.968;5.918;2022-07-06T04:54:47;800.70;;;742.40;;
22768;SDS011;13001;51.968;5.918;2022-07-06T04:57:15;795.83;;;736.10;;
22768;SDS011;13001;51.968;5.918;2022-07-06T04:59:42;657.30;;;613.33;;
22768;SDS011;13001;51.968;5.918;2022-07-06T05:02:09;713.70;;;661.17;;
22768;SDS011;13001;51.968;5.918;2022-07-06T05:04:36;783.17;;;722.92;;
22768;SDS011;13001;51.968;5.918;2022-07-06T05:07:04;796.72;;;737.90;;
22768;SDS011;13001;51.968;5.918;2022-07-06T05:09:31;660.95;;;616.08;;
22768;SDS011;13001;51.968;5.918;2022-07-06T05:11:58;417.95;;;393.52;;
22768;SDS011;13001;51.968;5.918;2022-07-06T05:14:25;542.57;;;506.00;;
22768;SDS011;13001;51.968;5.918;2022-07-06T05:16:53;555.73;;;518.45;;
22768;SDS011;13001;51.968;5.918;2022-07-06T05:19:20;511.95;;;480.65;;
22768;SDS011;13001;51.968;5.918;2022-07-06T05:21:47;520.55;;;488.45;;
22768;SDS011;13001;51.968;5.918;2022-07-06T05:24:14;510.40;;;479.20;;
22768;SDS011;13001;51.968;5.918;2022-07-06T05:26:45;520.62;;;488.48;;
22768;SDS011;13001;51.968;5.918;2022-07-06T05:29:12;514.55;;;482.05;;
22768;SDS011;13001;51.968;5.918;2022-07-06T05:31:48;518.23;;;484.63;;
22768;SDS011;13001;51.968;5.918;2022-07-06T05:34:16;531.63;;;496.72;;
22768;SDS011;13001;51.968;5.918;2022-07-06T05:36:43;495.52;;;464.70;;
22768;SDS011;13001;51.968;5.918;2022-07-06T05:39:11;493.65;;;463.33;;
22768;SDS011;13001;51.968;5.918;2022-07-06T05:41:38;600.00;;;559.45;;
22768;SDS011;13001;51.968;5.918;2022-07-06T05:44:05;625.45;;;581.75;;
22768;SDS011;13001;51.968;5.918;2022-07-06T05:46:32;677.00;;;625.70;;
22768;SDS011;13001;51.968;5.918;2022-07-06T05:49:00;767.43;;;707.97;;
22768;SDS011;13001;51.968;5.918;2022-07-06T05:51:45;841.92;;;779.35;;
22768;SDS011;13001;51.968;5.918;2022-07-06T05:54:12;907.10;;;839.30;;
22768;SDS011;13001;51.968;5.918;2022-07-06T05:56:40;897.03;;;830.10;;
22768;SDS011;13001;51.968;5.918;2022-07-06T05:59:10;885.23;;;819.07;;
22768;SDS011;13001;51.968;5.918;2022-07-06T06:01:37;852.53;;;789.63;;
22768;SDS011;13001;51.968;5.918;2022-07-06T06:04:05;845.17;;;783.45;;
22768;SDS011;13001;51.968;5.918;2022-07-06T06:06:32;767.70;;;710.52;;
22768;SDS011;13001;51.968;5.918;2022-07-06T06:08:59;793.05;;;733.07;;
22768;SDS011;13001;51.968;5.918;2022-07-06T06:11:26;709.25;;;660.37;;
22768;SDS011;13001;51.968;5.918;2022-07-06T06:13:54;477.70;;;446.63;;
22768;SDS011;13001;51.968;5.918;2022-07-06T06:16:21;571.87;;;534.80;;
22768;SDS011;13001;51.968;5.918;2022-07-06T06:18:50;462.25;;;436.08;;
22768;SDS011;13001;51.968;5.918;2022-07-06T06:21:17;461.10;;;435.67;;
22768;SDS011;13001;51.968;5.918;2022-07-06T06:23:44;431.52;;;407.15;;
22768;SDS011;13001;51.968;5.918;2022-07-06T06:26:12;388.45;;;366.42;;
22768;SDS011;13001;51.968;5.918;2022-07-06T06:28:39;426.43;;;402.02;;
22768;SDS011;13001;51.968;5.918;2022-07-06T06:31:07;352.35;;;332.62;;
22768;SDS011;13001;51.968;5.918;2022-07-06T06:33:35;129.12;;;121.40;;
22768;SDS011;13001;51.968;5.918;2022-07-06T06:36:02;88.42;;;83.30;;
22768;SDS011;13001;51.968;5.918;2022-07-06T06:38:29;58.17;;;55.00;;
22768;SDS011;13001;51.968;5.918;2022-07-06T06:40:57;39.35;;;37.20;;
22768;SDS011;13001;51.968;5.918;2022-07-06T06:43:24;64.72;;;61.13;;
22768;SDS011;13001;51.968;5.918;2022-07-06T06:45:51;49.13;;;46.33;;
22768;SDS011;13001;51.968;5.918;2022-07-06T06:48:19;55.43;;;52.27;;
22768;SDS011;13001;51.968;5.918;2022-07-06T06:50:46;47.35;;;44.27;;
22768;SDS011;13001;51.968;5.918;2022-07-06T06:53:13;42.27;;;39.73;;
22768;SDS011;13001;51.968;5.918;2022-07-06T06:55:40;47.78;;;45.00;;
22768;SDS011;13001;51.968;5.918;2022-07-06T06:58:08;61.57;;;58.07;;
22768;SDS011;13001;51.968;5.918;2022-07-06T07:00:35;68.78;;;64.70;;
22768;SDS011;13001;51.968;5.918;2022-07-06T07:03:02;72.23;;;68.30;;
22768;SDS011;13001;51.968;5.918;2022-07-06T07:05:30;99.65;;;94.17;;
22768;SDS011;13001;51.968;5.918;2022-07-06T07:07:57;102.97;;;97.27;;
22768;SDS011;13001;51.968;5.918;2022-07-06T07:10:25;112.22;;;105.87;;
22768;SDS011;13001;51.968;5.918;2022-07-06T07:12:52;98.60;;;93.20;;
22768;SDS011;13001;51.968;5.918;2022-07-06T07:15:19;80.12;;;75.57;;
22768;SDS011;13001;51.968;5.918;2022-07-06T07:17:47;92.35;;;87.15;;
22768;SDS011;13001;51.968;5.918;2022-07-06T07:20:14;94.50;;;89.25;;
22768;SDS011;13001;51.968;5.918;2022-07-06T07:22:41;113.08;;;106.58;;
22768;SDS011;13001;51.968;5.918;2022-07-06T07:25:08;112.20;;;105.90;;
22768;SDS011;13001;51.968;5.918;2022-07-06T07:27:36;106.58;;;100.67;;
22768;SDS011;13001;51.968;5.918;2022-07-06T07:30:03;105.63;;;99.72;;
22768;SDS011;13001;51.968;5.918;2022-07-06T07:32:31;100.85;;;95.15;;
22768;SDS011;13001;51.968;5.918;2022-07-06T07:34:58;101.87;;;96.47;;
22768;SDS011;13001;51.968;5.918;2022-07-06T07:37:25;113.55;;;107.30;;
22768;SDS011;13001;51.968;5.918;2022-07-06T07:39:53;125.70;;;118.50;;
22768;SDS011;13001;51.968;5.918;2022-07-06T07:42:20;136.73;;;128.63;;
22768;SDS011;13001;51.968;5.918;2022-07-06T07:44:47;144.07;;;135.28;;
22768;SDS011;13001;51.968;5.918;2022-07-06T07:47:16;140.95;;;132.67;;
22768;SDS011;13001;51.968;5.918;2022-07-06T07:49:43;104.87;;;99.05;;
22768;SDS011;13001;51.968;5.918;2022-07-06T07:52:10;124.62;;;117.30;;
22768;SDS011;13001;51.968;5.918;2022-07-06T07:54:38;136.85;;;129.12;;
22768;SDS011;13001;51.968;5.918;2022-07-06T07:57:05;69.65;;;65.80;;
22768;SDS011;13001;51.968;5.918;2022-07-06T07:59:32;111.30;;;105.07;;
22768;SDS011;13001;51.968;5.918;2022-07-06T08:02:00;76.77;;;72.42;;
22768;SDS011;13001;51.968;5.918;2022-07-06T08:04:27;76.05;;;71.80;;
22768;SDS011;13001;51.968;5.918;2022-07-06T08:06:54;118.90;;;112.12;;
22768;SDS011;13001;51.968;5.918;2022-07-06T08:09:22;133.18;;;125.50;;
22768;SDS011;13001;51.968;5.918;2022-07-06T08:11:49;103.13;;;97.37;;
22768;SDS011;13001;51.968;5.918;2022-07-06T08:14:16;86.20;;;81.42;;
22768;SDS011;13001;51.968;5.918;2022-07-06T08:16:43;75.80;;;71.45;;
22768;SDS011;13001;51.968;5.918;2022-07-06T08:19:11;122.72;;;115.65;;
22768;SDS011;13001;51.968;5.918;2022-07-06T08:21:40;135.52;;;127.80;;
22768;SDS011;13001;51.968;5.918;2022-07-06T08:24:07;106.80;;;100.78;;
22768;SDS011;13001;51.968;5.918;2022-07-06T08:26:34;128.12;;;120.95;;
22768;SDS011;13001;51.968;5.918;2022-07-06T08:29:02;132.00;;;124.63;;
22768;SDS011;13001;51.968;5.918;2022-07-06T08:31:29;130.55;;;123.25;;
22768;SDS011;13001;51.968;5.918;2022-07-06T08:33:57;113.17;;;106.83;;
22768;SDS011;13001;51.968;5.918;2022-07-06T08:36:25;121.72;;;114.88;;
22768;SDS011;13001;51.968;5.918;2022-07-06T08:38:52;123.05;;;115.90;;
22768;SDS011;13001;51.968;5.918;2022-07-06T08:41:21;104.92;;;99.13;;
22768;SDS011;13001;51.968;5.918;2022-07-06T08:43:50;107.17;;;101.10;;
22768;SDS011;13001;51.968;5.918;2022-07-06T08:46:19;133.10;;;125.40;;
22768;SDS011;13001;51.968;5.918;2022-07-06T08:48:46;108.63;;;102.53;;
22768;SDS011;13001;51.968;5.918;2022-07-06T08:51:14;128.02;;;120.65;;
22768;SDS011;13001;51.968;5.918;2022-07-06T08:53:42;110.80;;;104.40;;
22768;SDS011;13001;51.968;5.918;2022-07-06T08:56:09;112.57;;;106.32;;
22768;SDS011;13001;51.968;5.918;2022-07-06T08:58:37;127.67;;;120.55;;
22768;SDS011;13001;51.968;5.918;2022-07-06T09:01:06;117.65;;;110.95;;
22768;SDS011;13001;51.968;5.918;2022-07-06T09:03:33;130.12;;;122.72;;
22768;SDS011;13001;51.968;5.918;2022-07-06T09:06:01;159.75;;;150.72;;
22768;SDS011;13001;51.968;5.918;2022-07-06T09:08:29;167.90;;;157.88;;
22768;SDS011;13001;51.968;5.918;2022-07-06T09:10:57;189.85;;;178.55;;
22768;SDS011;13001;51.968;5.918;2022-07-06T09:13:25;181.67;;;170.90;;
22768;SDS011;13001;51.968;5.918;2022-07-06T09:15:52;237.82;;;224.20;;
22768;SDS011;13001;51.968;5.918;2022-07-06T09:18:21;250.05;;;235.63;;
22768;SDS011;13001;51.968;5.918;2022-07-06T09:20:48;330.73;;;311.85;;
22768;SDS011;13001;51.968;5.918;2022-07-06T09:23:16;373.10;;;351.55;;
22768;SDS011;13001;51.968;5.918;2022-07-06T09:25:47;432.80;;;407.23;;
22768;SDS011;13001;51.968;5.918;2022-07-06T09:28:12;428.38;;;403.35;;
22768;SDS011;13001;51.968;5.918;2022-07-06T09:30:39;491.73;;;462.05;;
22768;SDS011;13001;51.968;5.918;2022-07-06T09:33:08;503.83;;;473.60;;
22768;SDS011;13001;51.968;5.918;2022-07-06T09:35:36;519.23;;;487.77;;
22768;SDS011;13001;51.968;5.918;2022-07-06T09:38:05;536.90;;;504.48;;
22768;SDS011;13001;51.968;5.918;2022-07-06T09:40:33;558.35;;;524.15;;
22768;SDS011;13001;51.968;5.918;2022-07-06T09:43:11;534.55;;;502.28;;
22768;SDS011;13001;51.968;5.918;2022-07-06T09:45:30;496.27;;;466.40;;
22768;SDS011;13001;51.968;5.918;2022-07-06T09:47:57;504.00;;;474.02;;
22768;SDS011;13001;51.968;5.918;2022-07-06T09:50:26;539.70;;;507.08;;
22768;SDS011;13001;51.968;5.918;2022-07-06T09:52:54;502.45;;;472.50;;
22768;SDS011;13001;51.968;5.918;2022-07-06T09:55:22;525.38;;;494.20;;
22768;SDS011;13001;51.968;5.918;2022-07-06T09:57:52;504.62;;;474.82;;
22768;SDS011;13001;51.968;5.918;2022-07-06T10:00:21;465.13;;;438.23;;
22768;SDS011;13001;51.968;5.918;2022-07-06T10:02:48;424.85;;;400.12;;
22768;SDS011;13001;51.968;5.918;2022-07-06T10:05:16;428.70;;;403.73;;
22768;SDS011;13001;51.968;5.918;2022-07-06T10:07:48;414.30;;;390.38;;
22768;SDS011;13001;51.968;5.918;2022-07-06T10:10:15;413.45;;;389.42;;
22768;SDS011;13001;51.968;5.918;2022-07-06T10:12:44;398.68;;;375.22;;
22768;SDS011;13001;51.968;5.918;2022-07-06T10:15:11;430.00;;;404.90;;
22768;SDS011;13001;51.968;5.918;2022-07-06T10:17:39;415.80;;;392.10;;
22768;SDS011;13001;51.968;5.918;2022-07-06T10:20:07;436.90;;;411.75;;
22768;SDS011;13001;51.968;5.918;2022-07-06T10:22:34;414.60;;;390.43;;
22768;SDS011;13001;51.968;5.918;2022-07-06T10:25:02;456.07;;;429.62;;
22768;SDS011;13001;51.968;5.918;2022-07-06T10:27:29;405.13;;;381.38;;
22768;SDS011;13001;51.968;5.918;2022-07-06T10:29:57;439.20;;;413.90;;
22768;SDS011;13001;51.968;5.918;2022-07-06T10:32:24;452.90;;;426.98;;
22768;SDS011;13001;51.968;5.918;2022-07-06T10:34:52;482.65;;;454.50;;
22768;SDS011;13001;51.968;5.918;2022-07-06T10:37:23;507.83;;;478.10;;
22768;SDS011;13001;51.968;5.918;2022-07-06T10:39:51;528.42;;;496.77;;
22768;SDS011;13001;51.968;5.918;2022-07-06T10:45:13;535.13;;;503.40;;
22768;SDS011;13001;51.968;5.918;2022-07-06T10:47:41;481.82;;;453.38;;
22768;SDS011;13001;51.968;5.918;2022-07-06T10:50:08;461.38;;;434.52;;
22768;SDS011;13001;51.968;5.918;2022-07-06T10:52:48;480.67;;;452.82;;
22768;SDS011;13001;51.968;5.918;2022-07-06T10:55:38;536.83;;;504.90;;
22768;SDS011;13001;51.968;5.918;2022-07-06T10:57:53;523.07;;;492.20;;
22768;SDS011;13001;51.968;5.918;2022-07-06T11:00:21;527.75;;;496.30;;
22768;SDS011;13001;51.968;5.918;2022-07-06T11:02:48;480.55;;;452.37;;
22768;SDS011;13001;51.968;5.918;2022-07-06T11:06:17;459.83;;;432.85;;
22768;SDS011;13001;51.968;5.918;2022-07-06T11:07:53;434.60;;;409.10;;
22768;SDS011;13001;51.968;5.918;2022-07-06T11:10:22;476.40;;;448.57;;
22768;SDS011;13001;51.968;5.918;2022-07-06T11:12:49;501.67;;;472.17;;
22768;SDS011;13001;51.968;5.918;2022-07-06T11:18:10;569.25;;;535.20;;
22768;SDS011;13001;51.968;5.918;2022-07-06T11:20:39;513.22;;;482.85;;
22768;SDS011;13001;51.968;5.918;2022-07-06T11:23:06;553.40;;;520.05;;
22768;SDS011;13001;51.968;5.918;2022-07-06T11:25:34;567.85;;;533.17;;
22768;SDS011;13001;51.968;5.918;2022-07-06T11:28:01;577.73;;;542.58;;
22768;SDS011;13001;51.968;5.918;2022-07-06T11:30:29;559.58;;;525.90;;
22768;SDS011;13001;51.968;5.918;2022-07-06T11:32:58;564.13;;;529.23;;
22768;SDS011;13001;51.968;5.918;2022-07-06T11:35:25;538.05;;;505.48;;
22768;SDS011;13001;51.968;5.918;2022-07-06T11:37:52;559.85;;;525.62;;
22768;SDS011;13001;51.968;5.918;2022-07-06T11:40:20;602.02;;;564.37;;
22768;SDS011;13001;51.968;5.918;2022-07-06T11:42:53;605.00;;;565.98;;
22768;SDS011;13001;51.968;5.918;2022-07-06T11:45:26;632.45;;;590.28;;
22768;SDS011;13001;51.968;5.918;2022-07-06T11:48:09;635.25;;;592.77;;
22768;SDS011;13001;51.968;5.918;2022-07-06T11:50:22;618.40;;;579.58;;
22768;SDS011;13001;51.968;5.918;2022-07-06T11:52:50;586.12;;;549.83;;
22768;SDS011;13001;51.968;5.918;2022-07-06T11:55:17;548.37;;;515.05;;
22768;SDS011;13001;51.968;5.918;2022-07-06T11:57:44;602.75;;;565.45;;
22768;SDS011;13001;51.968;5.918;2022-07-06T12:00:12;609.22;;;571.03;;
22768;SDS011;13001;51.968;5.918;2022-07-06T12:02:39;618.00;;;579.20;;
22768;SDS011;13001;51.968;5.918;2022-07-06T12:05:07;620.38;;;581.25;;
22768;SDS011;13001;51.968;5.918;2022-07-06T12:07:34;629.77;;;589.20;;
22768;SDS011;13001;51.968;5.918;2022-07-06T12:10:01;610.93;;;572.70;;
22768;SDS011;13001;51.968;5.918;2022-07-06T12:12:29;636.47;;;594.45;;
22768;SDS011;13001;51.968;5.918;2022-07-06T12:14:56;629.40;;;588.35;;
22768;SDS011;13001;51.968;5.918;2022-07-06T12:17:23;633.48;;;591.77;;
22768;SDS011;13001;51.968;5.918;2022-07-06T12:19:52;614.63;;;573.13;;
22768;SDS011;13001;51.968;5.918;2022-07-06T12:22:24;626.08;;;585.10;;
22768;SDS011;13001;51.968;5.918;2022-07-06T12:24:51;623.20;;;583.48;;
22768;SDS011;13001;51.968;5.918;2022-07-06T12:27:20;622.98;;;582.70;;
22768;SDS011;13001;51.968;5.918;2022-07-06T12:29:47;645.45;;;602.67;;
22768;SDS011;13001;51.968;5.918;2022-07-06T12:32:15;615.65;;;575.05;;
22768;SDS011;13001;51.968;5.918;2022-07-06T12:34:43;621.00;;;579.38;;
22768;SDS011;13001;51.968;5.918;2022-07-06T12:37:10;617.37;;;575.98;;
22768;SDS011;13001;51.968;5.918;2022-07-06T12:39:45;616.23;;;574.87;;
22768;SDS011;13001;51.968;5.918;2022-07-06T12:42:10;624.17;;;582.47;;
22768;SDS011;13001;51.968;5.918;2022-07-06T12:44:44;625.27;;;583.10;;
22768;SDS011;13001;51.968;5.918;2022-07-06T12:47:12;615.02;;;573.70;;
22768;SDS011;13001;51.968;5.918;2022-07-06T12:49:41;622.02;;;580.15;;
22768;SDS011;13001;51.968;5.918;2022-07-06T12:52:12;609.22;;;568.45;;
22768;SDS011;13001;51.968;5.918;2022-07-06T12:54:41;616.83;;;575.03;;
22768;SDS011;13001;51.968;5.918;2022-07-06T12:57:12;608.10;;;568.05;;
22768;SDS011;13001;51.968;5.918;2022-07-06T13:02:22;600.03;;;560.97;;
22768;SDS011;13001;51.968;5.918;2022-07-06T13:04:59;612.13;;;570.87;;
22768;SDS011;13001;51.968;5.918;2022-07-06T13:07:28;612.00;;;571.00;;
22768;SDS011;13001;51.968;5.918;2022-07-06T13:09:57;614.97;;;573.17;;
22768;SDS011;13001;51.968;5.918;2022-07-06T13:12:25;617.60;;;575.25;;
22768;SDS011;13001;51.968;5.918;2022-07-06T13:14:52;641.93;;;598.97;;
22768;SDS011;13001;51.968;5.918;2022-07-06T13:17:19;613.45;;;572.08;;
22768;SDS011;13001;51.968;5.918;2022-07-06T13:19:47;639.90;;;597.27;;
22768;SDS011;13001;51.968;5.918;2022-07-06T13:22:14;660.02;;;616.05;;
22768;SDS011;13001;51.968;5.918;2022-07-06T13:24:41;623.13;;;581.02;;
22768;SDS011;13001;51.968;5.918;2022-07-06T13:27:09;624.27;;;581.60;;
22768;SDS011;13001;51.968;5.918;2022-07-06T13:29:36;627.52;;;585.08;;
22768;SDS011;13001;51.968;5.918;2022-07-06T13:32:04;645.45;;;601.40;;
22768;SDS011;13001;51.968;5.918;2022-07-06T13:34:31;637.10;;;593.47;;
22768;SDS011;13001;51.968;5.918;2022-07-06T13:36:59;618.50;;;576.13;;
22768;SDS011;13001;51.968;5.918;2022-07-06T13:39:26;614.58;;;572.63;;
22768;SDS011;13001;51.968;5.918;2022-07-06T13:41:54;625.17;;;582.33;;
22768;SDS011;13001;51.968;5.918;2022-07-06T13:44:21;603.95;;;563.25;;
22768;SDS011;13001;51.968;5.918;2022-07-06T13:46:49;619.50;;;577.20;;
22768;SDS011;13001;51.968;5.918;2022-07-06T13:49:16;623.52;;;581.05;;
22768;SDS011;13001;51.968;5.918;2022-07-06T13:51:44;628.40;;;585.45;;
22768;SDS011;13001;51.968;5.918;2022-07-06T13:54:11;608.15;;;566.92;;
22768;SDS011;13001;51.968;5.918;2022-07-06T13:56:39;611.45;;;569.77;;
22768;SDS011;13001;51.968;5.918;2022-07-06T13:59:06;618.55;;;576.67;;
22768;SDS011;13001;51.968;5.918;2022-07-06T14:01:34;606.30;;;565.23;;
22768;SDS011;13001;51.968;5.918;2022-07-06T14:04:01;601.20;;;560.60;;
22768;SDS011;13001;51.968;5.918;2022-07-06T14:06:28;598.78;;;558.53;;
22768;SDS011;13001;51.968;5.918;2022-07-06T14:08:55;593.23;;;553.15;;
22768;SDS011;13001;51.968;5.918;2022-07-06T14:11:23;620.10;;;578.33;;